sensor_id;sensor_type;location;lat;lon;timestamp;P1;durP1;ratioP1;P2;durP2;ratioP2
33858;SDS011;20156;47.486;12.074;2023-05-24T00:02:20;10.07;;;9.07;;
33858;SDS011;20156;47.486;12.074;2023-05-24T00:04:47;7.95;;;7.15;;
33858;SDS011;20156;47.486;12.074;2023-05-24T00:07:13;9.40;;;8.50;;
33858;SDS011;20156;47.486;12.074;2023-05-24T00:09:40;8.95;;;8.05;;
33858;SDS011;20156;47.486;12.074;2023-05-24T00:12:06;8.15;;;7.45;;
33858;SDS011;20156;47.486;12.074;2023-05-24T00:14:31;8.52;;;7.78;;
33858;SDS011;20156;47.486;12.074;2023-05-24T00:16:57;9.15;;;8.25;;
33858;SDS011;20156;47.486;12.074;2023-05-24T00:19:22;9.10;;;8.25;;
33858;SDS011;20156;47.486;12.074;2023-05-24T00:21:48;9.35;;;7.60;;
33858;SDS011;20156;47.486;12.074;2023-05-24T00:24:13;9.20;;;8.40;;
33858;SDS011;20156;47.486;12.074;2023-05-24T00:26:41;8.48;;;7.68;;
33858;SDS011;20156;47.486;12.074;2023-05-24T00:29:06;9.60;;;8.60;;
33858;SDS011;20156;47.486;12.074;2023-05-24T00:31:32;10.63;;;7.50;;
33858;SDS011;20156;47.486;12.074;2023-05-24T00:33:57;7.97;;;7.25;;
33858;SDS011;20156;47.486;12.074;2023-05-24T00:36:23;7.95;;;7.25;;
33858;SDS011;20156;47.486;12.074;2023-05-24T00:38:49;8.88;;;7.90;;
33858;SDS011;20156;47.486;12.074;2023-05-24T00:41:16;9.20;;;8.25;;
33858;SDS011;20156;47.486;12.074;2023-05-24T00:43:42;7.70;;;7.00;;
33858;SDS011;20156;47.486;12.074;2023-05-24T00:48:46;7.30;;;6.60;;
33858;SDS011;20156;47.486;12.074;2023-05-24T00:51:13;6.85;;;6.25;;
33858;SDS011;20156;47.486;12.074;2023-05-24T00:53:40;9.13;;;8.27;;
33858;SDS011;20156;47.486;12.074;2023-05-24T00:56:08;7.60;;;6.82;;
33858;SDS011;20156;47.486;12.074;2023-05-24T00:58:35;8.23;;;7.30;;
33858;SDS011;20156;47.486;12.074;2023-05-24T01:01:01;7.28;;;6.43;;
33858;SDS011;20156;47.486;12.074;2023-05-24T01:03:27;7.03;;;6.38;;
33858;SDS011;20156;47.486;12.074;2023-05-24T01:05:58;9.40;;;7.47;;
33858;SDS011;20156;47.486;12.074;2023-05-24T01:09:16;8.35;;;7.53;;
33858;SDS011;20156;47.486;12.074;2023-05-24T01:11:28;8.35;;;7.55;;
33858;SDS011;20156;47.486;12.074;2023-05-24T01:14:17;7.28;;;6.57;;
33858;SDS011;20156;47.486;12.074;2023-05-24T01:17:05;7.90;;;7.05;;
33858;SDS011;20156;47.486;12.074;2023-05-24T01:25:06;8.45;;;7.68;;
33858;SDS011;20156;47.486;12.074;2023-05-24T01:27:38;9.00;;;8.23;;
33858;SDS011;20156;47.486;12.074;2023-05-24T01:30:05;6.63;;;6.05;;
33858;SDS011;20156;47.486;12.074;2023-05-24T01:32:31;8.85;;;8.05;;
33858;SDS011;20156;47.486;12.074;2023-05-24T01:34:57;7.93;;;7.22;;
33858;SDS011;20156;47.486;12.074;2023-05-24T01:37:22;7.90;;;7.18;;
33858;SDS011;20156;47.486;12.074;2023-05-24T01:39:48;8.82;;;8.05;;
33858;SDS011;20156;47.486;12.074;2023-05-24T01:42:23;10.90;;;9.48;;
33858;SDS011;20156;47.486;12.074;2023-05-24T01:50:06;6.43;;;5.88;;
33858;SDS011;20156;47.486;12.074;2023-05-24T01:52:39;9.27;;;8.32;;
33858;SDS011;20156;47.486;12.074;2023-05-24T01:55:08;6.90;;;6.35;;
33858;SDS011;20156;47.486;12.074;2023-05-24T01:57:37;10.60;;;8.00;;
33858;SDS011;20156;47.486;12.074;2023-05-24T02:00:05;9.10;;;8.25;;
33858;SDS011;20156;47.486;12.074;2023-05-24T02:02:32;10.13;;;9.15;;
33858;SDS011;20156;47.486;12.074;2023-05-24T02:04:57;9.13;;;8.23;;
33858;SDS011;20156;47.486;12.074;2023-05-24T02:07:22;8.57;;;7.80;;
33858;SDS011;20156;47.486;12.074;2023-05-24T02:09:48;9.38;;;8.57;;
33858;SDS011;20156;47.486;12.074;2023-05-24T02:12:13;10.30;;;9.30;;
33858;SDS011;20156;47.486;12.074;2023-05-24T02:14:39;11.30;;;10.30;;
33858;SDS011;20156;47.486;12.074;2023-05-24T02:17:06;9.00;;;8.13;;
33858;SDS011;20156;47.486;12.074;2023-05-24T02:19:32;11.48;;;10.35;;
33858;SDS011;20156;47.486;12.074;2023-05-24T02:21:58;11.32;;;10.32;;
33858;SDS011;20156;47.486;12.074;2023-05-24T02:24:24;11.60;;;10.52;;
33858;SDS011;20156;47.486;12.074;2023-05-24T02:26:49;9.38;;;8.48;;
33858;SDS011;20156;47.486;12.074;2023-05-24T02:29:15;12.18;;;10.98;;
33858;SDS011;20156;47.486;12.074;2023-05-24T02:31:40;12.32;;;10.85;;
33858;SDS011;20156;47.486;12.074;2023-05-24T02:34:05;7.90;;;7.28;;
33858;SDS011;20156;47.486;12.074;2023-05-24T02:36:31;12.40;;;10.45;;
33858;SDS011;20156;47.486;12.074;2023-05-24T02:39:00;10.63;;;9.52;;
33858;SDS011;20156;47.486;12.074;2023-05-24T02:41:26;8.27;;;7.10;;
33858;SDS011;20156;47.486;12.074;2023-05-24T02:43:51;10.43;;;9.43;;
33858;SDS011;20156;47.486;12.074;2023-05-24T02:46:16;10.75;;;9.75;;
33858;SDS011;20156;47.486;12.074;2023-05-24T02:48:42;10.35;;;9.45;;
33858;SDS011;20156;47.486;12.074;2023-05-24T02:51:07;11.77;;;10.73;;
33858;SDS011;20156;47.486;12.074;2023-05-24T02:53:33;9.93;;;9.02;;
33858;SDS011;20156;47.486;12.074;2023-05-24T02:55:58;10.90;;;8.70;;
33858;SDS011;20156;47.486;12.074;2023-05-24T02:58:24;9.15;;;8.35;;
33858;SDS011;20156;47.486;12.074;2023-05-24T03:00:52;8.98;;;8.00;;
33858;SDS011;20156;47.486;12.074;2023-05-24T03:03:18;10.20;;;9.23;;
33858;SDS011;20156;47.486;12.074;2023-05-24T03:05:44;9.63;;;8.82;;
33858;SDS011;20156;47.486;12.074;2023-05-24T03:08:10;10.95;;;9.95;;
33858;SDS011;20156;47.486;12.074;2023-05-24T03:10:35;9.45;;;8.57;;
33858;SDS011;20156;47.486;12.074;2023-05-24T03:13:00;8.73;;;7.85;;
33858;SDS011;20156;47.486;12.074;2023-05-24T03:15:26;8.55;;;7.78;;
33858;SDS011;20156;47.486;12.074;2023-05-24T03:17:51;9.38;;;8.57;;
33858;SDS011;20156;47.486;12.074;2023-05-24T03:20:17;8.90;;;8.10;;
33858;SDS011;20156;47.486;12.074;2023-05-24T03:22:44;8.50;;;7.43;;
33858;SDS011;20156;47.486;12.074;2023-05-24T03:25:10;10.32;;;9.45;;
33858;SDS011;20156;47.486;12.074;2023-05-24T03:27:35;8.32;;;7.63;;
33858;SDS011;20156;47.486;12.074;2023-05-24T03:30:01;8.20;;;7.50;;
33858;SDS011;20156;47.486;12.074;2023-05-24T03:32:26;6.60;;;6.10;;
33858;SDS011;20156;47.486;12.074;2023-05-24T03:34:52;11.57;;;10.38;;
33858;SDS011;20156;47.486;12.074;2023-05-24T03:37:18;8.65;;;7.88;;
33858;SDS011;20156;47.486;12.074;2023-05-24T03:39:43;9.02;;;8.23;;
33858;SDS011;20156;47.486;12.074;2023-05-24T03:42:08;10.55;;;9.55;;
33858;SDS011;20156;47.486;12.074;2023-05-24T03:44:34;10.82;;;9.80;;
33858;SDS011;20156;47.486;12.074;2023-05-24T03:46:59;11.90;;;10.73;;
33858;SDS011;20156;47.486;12.074;2023-05-24T03:49:25;11.20;;;10.15;;
33858;SDS011;20156;47.486;12.074;2023-05-24T03:51:50;11.90;;;10.70;;
33858;SDS011;20156;47.486;12.074;2023-05-24T03:54:16;11.02;;;10.07;;
33858;SDS011;20156;47.486;12.074;2023-05-24T03:56:42;12.00;;;10.82;;
33858;SDS011;20156;47.486;12.074;2023-05-24T03:59:07;15.77;;;14.48;;
33858;SDS011;20156;47.486;12.074;2023-05-24T04:01:33;17.35;;;15.85;;
33858;SDS011;20156;47.486;12.074;2023-05-24T04:04:00;17.05;;;15.48;;
33858;SDS011;20156;47.486;12.074;2023-05-24T04:06:27;20.02;;;18.27;;
33858;SDS011;20156;47.486;12.074;2023-05-24T04:08:54;19.10;;;17.33;;
33858;SDS011;20156;47.486;12.074;2023-05-24T04:11:20;20.65;;;18.67;;
33858;SDS011;20156;47.486;12.074;2023-05-24T04:13:47;22.23;;;18.42;;
33858;SDS011;20156;47.486;12.074;2023-05-24T04:16:12;21.83;;;19.80;;
33858;SDS011;20156;47.486;12.074;2023-05-24T04:18:38;21.45;;;19.17;;
33858;SDS011;20156;47.486;12.074;2023-05-24T04:21:03;21.45;;;19.45;;
33858;SDS011;20156;47.486;12.074;2023-05-24T04:23:29;19.52;;;17.63;;
33858;SDS011;20156;47.486;12.074;2023-05-24T04:25:54;20.50;;;18.48;;
33858;SDS011;20156;47.486;12.074;2023-05-24T04:28:20;19.48;;;17.77;;
33858;SDS011;20156;47.486;12.074;2023-05-24T04:30:46;17.52;;;16.02;;
33858;SDS011;20156;47.486;12.074;2023-05-24T04:33:12;18.08;;;16.38;;
33858;SDS011;20156;47.486;12.074;2023-05-24T04:35:38;17.55;;;15.90;;
33858;SDS011;20156;47.486;12.074;2023-05-24T04:38:05;18.70;;;16.85;;
33858;SDS011;20156;47.486;12.074;2023-05-24T04:40:31;15.20;;;13.88;;
33858;SDS011;20156;47.486;12.074;2023-05-24T04:42:56;16.73;;;15.23;;
33858;SDS011;20156;47.486;12.074;2023-05-24T04:45:22;16.20;;;14.75;;
33858;SDS011;20156;47.486;12.074;2023-05-24T04:47:47;13.85;;;12.55;;
33858;SDS011;20156;47.486;12.074;2023-05-24T04:50:13;17.08;;;15.48;;
33858;SDS011;20156;47.486;12.074;2023-05-24T04:52:38;11.20;;;10.23;;
33858;SDS011;20156;47.486;12.074;2023-05-24T04:55:04;10.45;;;9.55;;
33858;SDS011;20156;47.486;12.074;2023-05-24T04:57:30;12.90;;;11.80;;
33858;SDS011;20156;47.486;12.074;2023-05-24T04:59:55;11.77;;;10.77;;
33858;SDS011;20156;47.486;12.074;2023-05-24T05:02:21;13.50;;;12.15;;
33858;SDS011;20156;47.486;12.074;2023-05-24T05:04:46;15.10;;;13.68;;
33858;SDS011;20156;47.486;12.074;2023-05-24T05:07:12;13.90;;;12.70;;
33858;SDS011;20156;47.486;12.074;2023-05-24T05:09:37;14.10;;;12.63;;
33858;SDS011;20156;47.486;12.074;2023-05-24T05:12:03;13.93;;;12.52;;
33858;SDS011;20156;47.486;12.074;2023-05-24T05:14:28;13.75;;;12.55;;
33858;SDS011;20156;47.486;12.074;2023-05-24T05:16:54;14.18;;;12.88;;
33858;SDS011;20156;47.486;12.074;2023-05-24T05:19:19;14.98;;;13.48;;
33858;SDS011;20156;47.486;12.074;2023-05-24T05:21:45;13.25;;;12.05;;
33858;SDS011;20156;47.486;12.074;2023-05-24T05:24:10;13.68;;;12.48;;
33858;SDS011;20156;47.486;12.074;2023-05-24T05:26:36;13.57;;;12.38;;
33858;SDS011;20156;47.486;12.074;2023-05-24T05:29:01;9.23;;;8.43;;
33858;SDS011;20156;47.486;12.074;2023-05-24T05:31:28;14.88;;;13.52;;
33858;SDS011;20156;47.486;12.074;2023-05-24T05:33:53;10.10;;;9.18;;
33858;SDS011;20156;47.486;12.074;2023-05-24T05:36:18;14.15;;;12.95;;
33858;SDS011;20156;47.486;12.074;2023-05-24T05:38:44;12.25;;;11.15;;
33858;SDS011;20156;47.486;12.074;2023-05-24T05:41:09;13.75;;;12.55;;
33858;SDS011;20156;47.486;12.074;2023-05-24T05:43:35;10.15;;;9.25;;
33858;SDS011;20156;47.486;12.074;2023-05-24T05:46:01;9.88;;;8.98;;
33858;SDS011;20156;47.486;12.074;2023-05-24T05:48:26;12.75;;;11.68;;
33858;SDS011;20156;47.486;12.074;2023-05-24T05:50:52;14.63;;;13.23;;
33858;SDS011;20156;47.486;12.074;2023-05-24T05:53:17;14.50;;;13.20;;
33858;SDS011;20156;47.486;12.074;2023-05-24T05:55:42;13.07;;;11.88;;
33858;SDS011;20156;47.486;12.074;2023-05-24T05:58:08;13.43;;;12.23;;
33858;SDS011;20156;47.486;12.074;2023-05-24T06:00:33;16.48;;;14.77;;
33858;SDS011;20156;47.486;12.074;2023-05-24T06:02:59;15.10;;;13.70;;
33858;SDS011;20156;47.486;12.074;2023-05-24T06:05:24;14.57;;;13.27;;
33858;SDS011;20156;47.486;12.074;2023-05-24T06:07:49;12.95;;;11.75;;
33858;SDS011;20156;47.486;12.074;2023-05-24T06:10:15;14.95;;;13.65;;
33858;SDS011;20156;47.486;12.074;2023-05-24T06:12:40;16.20;;;14.75;;
33858;SDS011;20156;47.486;12.074;2023-05-24T06:15:06;15.98;;;14.57;;
33858;SDS011;20156;47.486;12.074;2023-05-24T06:17:32;16.05;;;14.60;;
33858;SDS011;20156;47.486;12.074;2023-05-24T06:19:58;15.40;;;13.95;;
33858;SDS011;20156;47.486;12.074;2023-05-24T06:22:24;14.63;;;13.32;;
33858;SDS011;20156;47.486;12.074;2023-05-24T06:24:52;15.75;;;14.23;;
33858;SDS011;20156;47.486;12.074;2023-05-24T06:27:17;19.38;;;16.60;;
33858;SDS011;20156;47.486;12.074;2023-05-24T06:29:43;13.82;;;12.38;;
33858;SDS011;20156;47.486;12.074;2023-05-24T06:32:08;13.77;;;12.30;;
33858;SDS011;20156;47.486;12.074;2023-05-24T06:34:33;14.50;;;13.18;;
33858;SDS011;20156;47.486;12.074;2023-05-24T06:36:59;11.57;;;9.80;;
33858;SDS011;20156;47.486;12.074;2023-05-24T06:39:24;12.27;;;11.20;;
33858;SDS011;20156;47.486;12.074;2023-05-24T06:41:50;12.40;;;11.30;;
33858;SDS011;20156;47.486;12.074;2023-05-24T06:44:16;12.45;;;11.20;;
33858;SDS011;20156;47.486;12.074;2023-05-24T06:46:41;12.18;;;10.98;;
33858;SDS011;20156;47.486;12.074;2023-05-24T06:49:07;12.00;;;10.90;;
33858;SDS011;20156;47.486;12.074;2023-05-24T06:51:32;11.60;;;10.57;;
33858;SDS011;20156;47.486;12.074;2023-05-24T06:53:58;11.10;;;10.10;;
33858;SDS011;20156;47.486;12.074;2023-05-24T06:56:23;9.43;;;8.63;;
33858;SDS011;20156;47.486;12.074;2023-05-24T06:58:50;11.00;;;10.00;;
33858;SDS011;20156;47.486;12.074;2023-05-24T07:01:16;11.00;;;9.98;;
33858;SDS011;20156;47.486;12.074;2023-05-24T07:03:42;12.20;;;10.65;;
33858;SDS011;20156;47.486;12.074;2023-05-24T07:06:08;10.45;;;9.55;;
33858;SDS011;20156;47.486;12.074;2023-05-24T07:08:37;7.55;;;6.85;;
33858;SDS011;20156;47.486;12.074;2023-05-24T07:11:03;7.95;;;7.25;;
33858;SDS011;20156;47.486;12.074;2023-05-24T07:13:29;7.00;;;6.40;;
33858;SDS011;20156;47.486;12.074;2023-05-24T07:15:54;8.50;;;7.72;;
33858;SDS011;20156;47.486;12.074;2023-05-24T07:18:19;10.00;;;9.10;;
33858;SDS011;20156;47.486;12.074;2023-05-24T07:20:45;8.07;;;7.28;;
33858;SDS011;20156;47.486;12.074;2023-05-24T07:23:11;9.00;;;8.30;;
33858;SDS011;20156;47.486;12.074;2023-05-24T07:25:36;13.27;;;11.90;;
33858;SDS011;20156;47.486;12.074;2023-05-24T07:28:02;6.80;;;6.30;;
33858;SDS011;20156;47.486;12.074;2023-05-24T07:30:27;6.78;;;6.18;;
33858;SDS011;20156;47.486;12.074;2023-05-24T07:32:53;7.38;;;6.78;;
33858;SDS011;20156;47.486;12.074;2023-05-24T07:35:18;6.70;;;5.97;;
33858;SDS011;20156;47.486;12.074;2023-05-24T07:37:44;5.50;;;5.10;;
33858;SDS011;20156;47.486;12.074;2023-05-24T07:40:09;6.53;;;5.93;;
33858;SDS011;20156;47.486;12.074;2023-05-24T07:42:39;4.97;;;4.50;;
33858;SDS011;20156;47.486;12.074;2023-05-24T07:45:05;6.25;;;5.70;;
33858;SDS011;20156;47.486;12.074;2023-05-24T07:47:35;7.68;;;7.07;;
33858;SDS011;20156;47.486;12.074;2023-05-24T07:50:01;6.47;;;5.97;;
33858;SDS011;20156;47.486;12.074;2023-05-24T07:52:27;7.38;;;6.78;;
33858;SDS011;20156;47.486;12.074;2023-05-24T07:54:53;8.35;;;7.53;;
33858;SDS011;20156;47.486;12.074;2023-05-24T07:57:19;8.25;;;7.45;;
33858;SDS011;20156;47.486;12.074;2023-05-24T07:59:45;6.55;;;6.05;;
33858;SDS011;20156;47.486;12.074;2023-05-24T08:02:10;6.95;;;5.80;;
33858;SDS011;20156;47.486;12.074;2023-05-24T08:04:37;6.88;;;6.18;;
33858;SDS011;20156;47.486;12.074;2023-05-24T08:07:03;6.10;;;5.60;;
33858;SDS011;20156;47.486;12.074;2023-05-24T08:09:29;6.32;;;5.80;;
33858;SDS011;20156;47.486;12.074;2023-05-24T08:11:59;7.38;;;6.68;;
33858;SDS011;20156;47.486;12.074;2023-05-24T08:14:25;6.30;;;5.47;;
33858;SDS011;20156;47.486;12.074;2023-05-24T08:16:50;6.22;;;5.65;;
33858;SDS011;20156;47.486;12.074;2023-05-24T08:19:16;6.28;;;5.68;;
33858;SDS011;20156;47.486;12.074;2023-05-24T08:21:41;5.82;;;5.32;;
33858;SDS011;20156;47.486;12.074;2023-05-24T08:24:07;6.88;;;6.28;;
33858;SDS011;20156;47.486;12.074;2023-05-24T08:26:33;7.00;;;6.38;;
33858;SDS011;20156;47.486;12.074;2023-05-24T08:28:58;7.60;;;6.65;;
33858;SDS011;20156;47.486;12.074;2023-05-24T08:31:24;8.60;;;6.78;;
33858;SDS011;20156;47.486;12.074;2023-05-24T08:33:50;9.30;;;8.50;;
33858;SDS011;20156;47.486;12.074;2023-05-24T08:36:18;9.27;;;8.48;;
33858;SDS011;20156;47.486;12.074;2023-05-24T08:38:43;9.43;;;8.57;;
33858;SDS011;20156;47.486;12.074;2023-05-24T08:41:09;7.43;;;6.75;;
33858;SDS011;20156;47.486;12.074;2023-05-24T08:43:35;7.55;;;6.90;;
33858;SDS011;20156;47.486;12.074;2023-05-24T08:46:02;7.28;;;6.57;;
33858;SDS011;20156;47.486;12.074;2023-05-24T08:48:30;7.32;;;6.72;;
33858;SDS011;20156;47.486;12.074;2023-05-24T08:50:58;7.47;;;6.78;;
33858;SDS011;20156;47.486;12.074;2023-05-24T08:53:24;7.45;;;6.57;;
33858;SDS011;20156;47.486;12.074;2023-05-24T08:55:50;6.75;;;6.18;;
33858;SDS011;20156;47.486;12.074;2023-05-24T08:58:18;6.45;;;5.85;;
33858;SDS011;20156;47.486;12.074;2023-05-24T09:00:44;7.72;;;7.13;;
33858;SDS011;20156;47.486;12.074;2023-05-24T09:03:09;6.97;;;6.32;;
33858;SDS011;20156;47.486;12.074;2023-05-24T09:05:36;6.65;;;6.05;;
33858;SDS011;20156;47.486;12.074;2023-05-24T09:08:01;5.47;;;5.07;;
33858;SDS011;20156;47.486;12.074;2023-05-24T09:10:28;6.75;;;6.20;;
33858;SDS011;20156;47.486;12.074;2023-05-24T09:12:56;6.07;;;5.57;;
33858;SDS011;20156;47.486;12.074;2023-05-24T09:15:22;6.32;;;5.78;;
33858;SDS011;20156;47.486;12.074;2023-05-24T09:17:48;6.32;;;5.82;;
33858;SDS011;20156;47.486;12.074;2023-05-24T09:20:13;7.00;;;6.40;;
33858;SDS011;20156;47.486;12.074;2023-05-24T09:22:42;7.20;;;6.60;;
33858;SDS011;20156;47.486;12.074;2023-05-24T09:25:08;9.30;;;8.40;;
33858;SDS011;20156;47.486;12.074;2023-05-24T09:27:35;9.35;;;8.63;;
33858;SDS011;20156;47.486;12.074;2023-05-24T09:30:01;8.30;;;7.60;;
33858;SDS011;20156;47.486;12.074;2023-05-24T09:32:29;9.93;;;9.13;;
33858;SDS011;20156;47.486;12.074;2023-05-24T09:34:56;7.55;;;6.85;;
33858;SDS011;20156;47.486;12.074;2023-05-24T09:37:22;8.30;;;7.50;;
33858;SDS011;20156;47.486;12.074;2023-05-24T09:39:51;9.10;;;8.25;;
33858;SDS011;20156;47.486;12.074;2023-05-24T09:42:18;9.80;;;8.90;;
33858;SDS011;20156;47.486;12.074;2023-05-24T09:44:48;10.88;;;9.95;;
33858;SDS011;20156;47.486;12.074;2023-05-24T09:47:40;10.90;;;10.00;;
33858;SDS011;20156;47.486;12.074;2023-05-24T09:50:11;10.35;;;9.45;;
33858;SDS011;20156;47.486;12.074;2023-05-24T09:52:38;10.18;;;9.20;;
33858;SDS011;20156;47.486;12.074;2023-05-24T09:55:11;10.13;;;9.23;;
33858;SDS011;20156;47.486;12.074;2023-05-24T09:57:52;11.32;;;8.73;;
33858;SDS011;20156;47.486;12.074;2023-05-24T10:00:27;9.80;;;8.88;;
33858;SDS011;20156;47.486;12.074;2023-05-24T10:03:00;10.20;;;9.30;;
33858;SDS011;20156;47.486;12.074;2023-05-24T10:05:30;9.75;;;8.85;;
33858;SDS011;20156;47.486;12.074;2023-05-24T10:07:56;11.25;;;10.07;;
33858;SDS011;20156;47.486;12.074;2023-05-24T10:10:21;11.18;;;10.18;;
33858;SDS011;20156;47.486;12.074;2023-05-24T10:12:47;9.82;;;9.02;;
33858;SDS011;20156;47.486;12.074;2023-05-24T10:15:13;10.10;;;9.20;;
33858;SDS011;20156;47.486;12.074;2023-05-24T10:17:39;8.55;;;7.85;;
33858;SDS011;20156;47.486;12.074;2023-05-24T10:20:05;9.55;;;8.63;;
33858;SDS011;20156;47.486;12.074;2023-05-24T10:22:31;10.45;;;9.45;;
33858;SDS011;20156;47.486;12.074;2023-05-24T10:25:01;10.52;;;9.52;;
33858;SDS011;20156;47.486;12.074;2023-05-24T10:27:30;9.82;;;9.00;;
33858;SDS011;20156;47.486;12.074;2023-05-24T10:30:03;10.15;;;9.20;;
33858;SDS011;20156;47.486;12.074;2023-05-24T10:32:41;11.18;;;8.95;;
33858;SDS011;20156;47.486;12.074;2023-05-24T10:35:09;10.32;;;9.48;;
33858;SDS011;20156;47.486;12.074;2023-05-24T10:37:36;10.80;;;9.77;;
33858;SDS011;20156;47.486;12.074;2023-05-24T10:40:02;10.40;;;9.40;;
33858;SDS011;20156;47.486;12.074;2023-05-24T10:42:30;10.10;;;9.20;;
33858;SDS011;20156;47.486;12.074;2023-05-24T10:44:56;10.30;;;9.23;;
33858;SDS011;20156;47.486;12.074;2023-05-24T10:47:21;11.88;;;10.70;;
33858;SDS011;20156;47.486;12.074;2023-05-24T10:49:55;10.60;;;9.68;;
33858;SDS011;20156;47.486;12.074;2023-05-24T10:52:34;10.35;;;9.25;;
33858;SDS011;20156;47.486;12.074;2023-05-24T10:55:04;10.95;;;9.95;;
33858;SDS011;20156;47.486;12.074;2023-05-24T10:57:37;10.85;;;9.95;;
33858;SDS011;20156;47.486;12.074;2023-05-24T11:02:54;10.10;;;9.07;;
33858;SDS011;20156;47.486;12.074;2023-05-24T11:08:21;9.43;;;8.57;;
33858;SDS011;20156;47.486;12.074;2023-05-24T11:11:15;10.07;;;9.07;;
33858;SDS011;20156;47.486;12.074;2023-05-24T11:13:41;9.73;;;8.93;;
33858;SDS011;20156;47.486;12.074;2023-05-24T11:16:07;10.65;;;9.25;;
33858;SDS011;20156;47.486;12.074;2023-05-24T11:18:33;8.55;;;7.65;;
33858;SDS011;20156;47.486;12.074;2023-05-24T11:21:04;7.80;;;7.10;;
33858;SDS011;20156;47.486;12.074;2023-05-24T11:23:30;9.93;;;8.23;;
33858;SDS011;20156;47.486;12.074;2023-05-24T11:25:56;7.88;;;7.07;;
33858;SDS011;20156;47.486;12.074;2023-05-24T11:28:22;8.68;;;7.70;;
33858;SDS011;20156;47.486;12.074;2023-05-24T11:30:48;8.38;;;7.57;;
33858;SDS011;20156;47.486;12.074;2023-05-24T11:33:21;7.82;;;7.03;;
33858;SDS011;20156;47.486;12.074;2023-05-24T11:35:51;7.93;;;6.75;;
33858;SDS011;20156;47.486;12.074;2023-05-24T11:38:19;7.38;;;6.63;;
33858;SDS011;20156;47.486;12.074;2023-05-24T11:40:46;9.68;;;6.95;;
33858;SDS011;20156;47.486;12.074;2023-05-24T11:43:16;7.25;;;6.57;;
33858;SDS011;20156;47.486;12.074;2023-05-24T11:45:52;8.82;;;7.30;;
33858;SDS011;20156;47.486;12.074;2023-05-24T11:48:18;7.82;;;7.00;;
33858;SDS011;20156;47.486;12.074;2023-05-24T11:50:47;8.15;;;7.35;;
33858;SDS011;20156;47.486;12.074;2023-05-24T11:53:18;8.30;;;7.50;;
33858;SDS011;20156;47.486;12.074;2023-05-24T11:55:47;6.88;;;6.18;;
33858;SDS011;20156;47.486;12.074;2023-05-24T12:00:45;8.85;;;7.95;;
33858;SDS011;20156;47.486;12.074;2023-05-24T12:03:11;8.15;;;7.40;;
33858;SDS011;20156;47.486;12.074;2023-05-24T12:05:37;8.25;;;7.45;;
33858;SDS011;20156;47.486;12.074;2023-05-24T12:08:03;9.23;;;8.32;;
33858;SDS011;20156;47.486;12.074;2023-05-24T12:10:33;16.33;;;10.82;;
33858;SDS011;20156;47.486;12.074;2023-05-24T12:13:01;14.23;;;10.52;;
33858;SDS011;20156;47.486;12.074;2023-05-24T12:15:27;12.70;;;11.23;;
33858;SDS011;20156;47.486;12.074;2023-05-24T12:17:53;9.10;;;8.23;;
33858;SDS011;20156;47.486;12.074;2023-05-24T12:20:18;8.80;;;7.78;;
33858;SDS011;20156;47.486;12.074;2023-05-24T12:22:51;8.77;;;7.75;;
33858;SDS011;20156;47.486;12.074;2023-05-24T12:25:19;13.93;;;11.80;;
33858;SDS011;20156;47.486;12.074;2023-05-24T12:27:55;9.98;;;8.65;;
33858;SDS011;20156;47.486;12.074;2023-05-24T12:30:21;9.07;;;8.15;;
33858;SDS011;20156;47.486;12.074;2023-05-24T12:32:47;8.57;;;7.45;;
33858;SDS011;20156;47.486;12.074;2023-05-24T12:35:13;12.60;;;11.25;;
33858;SDS011;20156;47.486;12.074;2023-05-24T12:37:41;11.20;;;10.10;;
33858;SDS011;20156;47.486;12.074;2023-05-24T12:40:17;9.60;;;8.32;;
33858;SDS011;20156;47.486;12.074;2023-05-24T12:42:52;8.88;;;8.15;;
33858;SDS011;20156;47.486;12.074;2023-05-24T12:45:18;7.45;;;6.75;;
33858;SDS011;20156;47.486;12.074;2023-05-24T12:47:49;7.70;;;7.00;;
33858;SDS011;20156;47.486;12.074;2023-05-24T12:50:15;10.15;;;9.25;;
33858;SDS011;20156;47.486;12.074;2023-05-24T12:52:41;7.93;;;7.18;;
33858;SDS011;20156;47.486;12.074;2023-05-24T12:55:10;7.35;;;6.65;;
33858;SDS011;20156;47.486;12.074;2023-05-24T12:57:36;8.13;;;7.43;;
33858;SDS011;20156;47.486;12.074;2023-05-24T13:00:01;6.88;;;6.28;;
33858;SDS011;20156;47.486;12.074;2023-05-24T13:02:27;6.25;;;5.68;;
33858;SDS011;20156;47.486;12.074;2023-05-24T13:04:52;6.00;;;5.40;;
33858;SDS011;20156;47.486;12.074;2023-05-24T13:07:18;5.50;;;5.05;;
33858;SDS011;20156;47.486;12.074;2023-05-24T13:09:43;7.57;;;6.30;;
33858;SDS011;20156;47.486;12.074;2023-05-24T13:12:08;5.45;;;4.95;;
33858;SDS011;20156;47.486;12.074;2023-05-24T13:14:34;6.35;;;5.75;;
33858;SDS011;20156;47.486;12.074;2023-05-24T13:17:00;8.00;;;7.10;;
33858;SDS011;20156;47.486;12.074;2023-05-24T13:19:25;8.30;;;7.35;;
33858;SDS011;20156;47.486;12.074;2023-05-24T13:21:51;7.03;;;6.43;;
33858;SDS011;20156;47.486;12.074;2023-05-24T13:24:17;8.02;;;7.32;;
33858;SDS011;20156;47.486;12.074;2023-05-24T13:26:43;7.50;;;6.80;;
33858;SDS011;20156;47.486;12.074;2023-05-24T13:29:09;8.50;;;7.70;;
33858;SDS011;20156;47.486;12.074;2023-05-24T13:31:34;7.35;;;6.72;;
33858;SDS011;20156;47.486;12.074;2023-05-24T13:34:04;8.30;;;7.50;;
33858;SDS011;20156;47.486;12.074;2023-05-24T13:36:30;9.13;;;8.23;;
33858;SDS011;20156;47.486;12.074;2023-05-24T13:38:55;7.20;;;6.57;;
33858;SDS011;20156;47.486;12.074;2023-05-24T13:41:21;10.38;;;9.38;;
33858;SDS011;20156;47.486;12.074;2023-05-24T13:43:47;8.75;;;7.85;;
33858;SDS011;20156;47.486;12.074;2023-05-24T13:46:12;8.90;;;8.10;;
33858;SDS011;20156;47.486;12.074;2023-05-24T13:48:38;7.40;;;6.65;;
33858;SDS011;20156;47.486;12.074;2023-05-24T13:51:03;9.45;;;8.55;;
33858;SDS011;20156;47.486;12.074;2023-05-24T13:53:29;9.13;;;8.23;;
33858;SDS011;20156;47.486;12.074;2023-05-24T13:55:55;9.50;;;8.60;;
33858;SDS011;20156;47.486;12.074;2023-05-24T13:58:20;10.60;;;9.50;;
33858;SDS011;20156;47.486;12.074;2023-05-24T14:00:45;8.85;;;8.05;;
33858;SDS011;20156;47.486;12.074;2023-05-24T14:03:11;7.95;;;7.25;;
33858;SDS011;20156;47.486;12.074;2023-05-24T14:05:38;8.60;;;7.80;;
33858;SDS011;20156;47.486;12.074;2023-05-24T14:08:04;9.10;;;8.20;;
33858;SDS011;20156;47.486;12.074;2023-05-24T14:10:31;8.07;;;7.38;;
33858;SDS011;20156;47.486;12.074;2023-05-24T14:13:04;8.65;;;7.90;;
33858;SDS011;20156;47.486;12.074;2023-05-24T14:15:30;8.00;;;7.30;;
33858;SDS011;20156;47.486;12.074;2023-05-24T14:17:57;7.88;;;7.03;;
33858;SDS011;20156;47.486;12.074;2023-05-24T14:20:22;8.13;;;7.38;;
33858;SDS011;20156;47.486;12.074;2023-05-24T14:22:48;9.05;;;8.15;;
33858;SDS011;20156;47.486;12.074;2023-05-24T14:25:13;6.90;;;6.20;;
33858;SDS011;20156;47.486;12.074;2023-05-24T14:27:40;8.00;;;7.30;;
33858;SDS011;20156;47.486;12.074;2023-05-24T14:30:08;8.75;;;7.85;;
33858;SDS011;20156;47.486;12.074;2023-05-24T14:32:33;10.82;;;9.18;;
33858;SDS011;20156;47.486;12.074;2023-05-24T14:34:59;11.45;;;10.45;;
33858;SDS011;20156;47.486;12.074;2023-05-24T14:37:25;10.23;;;9.23;;
33858;SDS011;20156;47.486;12.074;2023-05-24T14:39:50;8.35;;;7.55;;
33858;SDS011;20156;47.486;12.074;2023-05-24T14:42:15;11.85;;;10.30;;
33858;SDS011;20156;47.486;12.074;2023-05-24T14:44:41;10.27;;;9.27;;
33858;SDS011;20156;47.486;12.074;2023-05-24T14:47:06;6.88;;;6.28;;